createdAt,value
2017-09-01T00:01:57.581Z,3.10
2017-09-01T00:04:24.127Z,3.20
2017-09-01T00:06:50.306Z,3.80
2017-09-01T00:09:17.883Z,3.97
2017-09-01T00:11:44.773Z,6.60
2017-09-01T00:14:12.094Z,6.73
2017-09-01T00:16:38.331Z,5.73
2017-09-01T00:19:05.641Z,6.30
2017-09-01T00:21:32.566Z,7.17
2017-09-01T00:23:58.771Z,5.30
2017-09-01T00:26:26.401Z,5.53
2017-09-01T00:28:54.300Z,6.00
2017-09-01T00:31:22.225Z,4.33
2017-09-01T00:33:50.116Z,4.10
2017-09-01T00:36:17.403Z,4.67
2017-09-01T00:38:45.070Z,4.53
2017-09-01T00:41:12.938Z,4.83
2017-09-01T00:43:39.101Z,3.87
2017-09-01T00:46:05.298Z,3.47
2017-09-01T00:48:33.274Z,3.47
2017-09-01T00:50:59.914Z,5.73
2017-09-01T00:53:26.587Z,5.07
2017-09-01T00:55:52.831Z,4.50
2017-09-01T00:58:19.748Z,6.20
2017-09-01T01:00:48.442Z,6.73
2017-09-01T01:03:15.023Z,4.03
2017-09-01T01:05:41.216Z,5.37
2017-09-01T01:08:08.206Z,5.57
2017-09-01T01:10:35.753Z,5.43
2017-09-01T01:13:02.872Z,5.80
2017-09-01T01:15:29.825Z,5.57
2017-09-01T01:17:57.107Z,4.80
2017-09-01T01:20:23.826Z,4.83
2017-09-01T01:22:50.418Z,6.03
2017-09-01T01:25:16.975Z,5.30
2017-09-01T01:27:43.166Z,5.60
2017-09-01T01:30:10.309Z,4.30
2017-09-01T01:32:36.527Z,5.40
2017-09-01T01:35:03.095Z,5.33
2017-09-01T01:37:31.102Z,6.20
2017-09-01T01:39:57.335Z,4.47
2017-09-01T01:42:23.919Z,4.30
2017-09-01T01:44:50.120Z,4.47
2017-09-01T01:47:17.270Z,4.00
2017-09-01T01:49:44.587Z,4.40
2017-09-01T01:52:11.507Z,4.90
2017-09-01T01:54:38.602Z,4.77
2017-09-01T01:57:05.199Z,4.50
2017-09-01T01:59:31.403Z,5.60
2017-09-01T02:01:58.183Z,5.07
2017-09-01T02:04:25.275Z,5.77
2017-09-01T02:06:51.510Z,5.00
2017-09-01T02:09:18.630Z,4.33
2017-09-01T02:11:44.834Z,5.23
2017-09-01T02:14:11.415Z,4.93
2017-09-01T02:16:38.364Z,3.83
2017-09-01T02:19:04.993Z,5.00
2017-09-01T02:21:31.619Z,7.47
2017-09-01T02:23:57.811Z,4.30
2017-09-01T02:26:24.011Z,4.93
2017-09-01T02:28:50.859Z,4.60
2017-09-01T02:31:19.186Z,5.57
2017-09-01T02:33:45.366Z,5.03
2017-09-01T02:36:11.603Z,4.97
2017-09-01T02:38:37.804Z,5.20
2017-09-01T02:41:04.381Z,5.30
2017-09-01T02:43:30.584Z,4.50
2017-09-01T02:45:56.809Z,5.13
2017-09-01T02:48:22.958Z,4.80
2017-09-01T02:50:49.881Z,6.00
2017-09-01T02:53:16.087Z,6.10
2017-09-01T02:55:42.650Z,5.83
2017-09-01T02:58:08.853Z,6.50
2017-09-01T03:00:35.124Z,5.93
2017-09-01T03:03:01.680Z,5.70
2017-09-01T03:05:27.886Z,5.43
2017-09-01T03:07:54.086Z,5.57
2017-09-01T03:10:20.342Z,6.33
2017-09-01T03:12:46.538Z,6.13
2017-09-01T03:15:13.136Z,5.93
2017-09-01T03:17:40.096Z,4.80
2017-09-01T03:20:07.067Z,6.00
2017-09-01T03:22:34.202Z,4.83
2017-09-01T03:25:01.087Z,4.90
2017-09-01T03:27:28.094Z,5.07
2017-09-01T03:29:54.291Z,4.83
2017-09-01T03:32:20.542Z,4.80
2017-09-01T03:34:46.746Z,5.17
2017-09-01T03:37:12.946Z,5.90
2017-09-01T03:39:39.891Z,5.83
2017-09-01T03:42:06.513Z,5.83
2017-09-01T03:44:33.341Z,6.53
2017-09-01T03:47:00.626Z,6.57
2017-09-01T03:49:26.825Z,7.57
2017-09-01T03:51:53.051Z,7.67
2017-09-01T03:54:19.286Z,7.90
2017-09-01T03:56:45.575Z,7.30
2017-09-01T03:59:12.866Z,7.23
2017-09-01T04:01:39.395Z,7.83
2017-09-01T04:04:05.622Z,6.77
2017-09-01T04:06:33.021Z,6.57
2017-09-01T04:09:00.325Z,7.07
2017-09-01T04:11:27.301Z,8.70
2017-09-01T04:13:54.734Z,7.50
2017-09-01T04:16:22.305Z,6.23
2017-09-01T04:18:48.511Z,6.60
2017-09-01T04:30:59.720Z,6.83
2017-09-01T04:33:27.004Z,6.77
2017-09-01T04:35:54.466Z,3.93
2017-09-01T04:38:20.647Z,5.67
2017-09-01T04:40:47.283Z,5.80
2017-09-01T04:43:13.854Z,7.20
2017-09-01T04:45:40.091Z,5.60
2017-09-01T04:48:06.257Z,6.53
2017-09-01T04:50:32.433Z,4.63
2017-09-01T04:52:59.727Z,5.33
2017-09-01T04:55:26.713Z,5.33
2017-09-01T04:57:52.929Z,6.33
2017-09-01T05:00:19.148Z,6.53
2017-09-01T05:02:45.379Z,6.47
2017-09-01T05:05:11.604Z,5.97
2017-09-01T05:07:37.802Z,5.60
2017-09-01T05:10:03.986Z,6.37
2017-09-01T05:12:30.270Z,4.77
2017-09-01T05:14:56.516Z,4.97
2017-09-01T05:17:22.743Z,5.50
2017-09-01T05:19:48.943Z,8.97
2017-09-01T05:22:16.262Z,4.90
2017-09-01T05:24:43.602Z,4.70
2017-09-01T05:27:09.818Z,4.30
2017-09-01T05:29:36.752Z,5.13
2017-09-01T05:32:02.992Z,5.67
2017-09-01T05:34:30.038Z,4.37
2017-09-01T05:36:56.591Z,5.20
2017-09-01T05:39:22.897Z,5.73
2017-09-01T05:41:49.455Z,4.43
2017-09-01T05:44:16.465Z,5.23
2017-09-01T05:46:44.130Z,4.90
2017-09-01T05:49:10.433Z,5.17
2017-09-01T05:51:37.055Z,6.43
2017-09-01T05:54:03.601Z,5.03
2017-09-01T05:56:29.849Z,6.07
2017-09-01T05:58:56.794Z,4.80
2017-09-01T06:01:23.014Z,5.13
2017-09-01T06:03:49.295Z,4.63
2017-09-01T06:06:17.485Z,4.73
2017-09-01T06:08:44.262Z,8.07
2017-09-01T06:11:11.359Z,8.40
2017-09-01T06:13:39.188Z,8.50
2017-09-01T06:16:06.623Z,10.10
2017-09-01T06:18:34.975Z,8.10
2017-09-01T06:21:01.123Z,7.97
2017-09-01T06:23:28.166Z,9.30
2017-09-01T06:25:54.423Z,7.90
2017-09-01T06:28:21.614Z,7.47
2017-09-01T06:30:47.767Z,7.80
2017-09-01T06:33:13.983Z,7.70
2017-09-01T06:35:40.532Z,4.70
2017-09-01T06:38:06.694Z,6.33
2017-09-01T06:40:32.888Z,5.43
2017-09-01T06:42:59.102Z,6.47
2017-09-01T06:45:25.304Z,5.37
2017-09-01T06:47:51.495Z,6.97
2017-09-01T06:50:18.026Z,8.30
2017-09-01T06:52:44.199Z,8.87
2017-09-01T06:55:11.099Z,9.00
2017-09-01T06:57:37.996Z,8.57
2017-09-01T07:00:05.004Z,8.70
2017-09-01T07:02:31.197Z,9.13
2017-09-01T07:04:57.371Z,7.87
2017-09-01T07:07:23.541Z,9.53
2017-09-01T07:09:49.722Z,8.80
2017-09-01T07:12:15.908Z,8.20
2017-09-01T07:14:42.121Z,9.53
2017-09-01T07:17:08.276Z,9.37
2017-09-01T07:19:34.452Z,10.30
2017-09-01T07:22:00.645Z,9.10
2017-09-01T07:24:26.840Z,11.00
2017-09-01T07:26:53.411Z,9.60
2017-09-01T07:29:20.623Z,10.20
2017-09-01T07:31:46.956Z,13.33
2017-09-01T07:34:13.104Z,11.80
2017-09-01T07:36:39.279Z,10.87
2017-09-01T07:39:05.469Z,12.43
2017-09-01T07:41:31.695Z,11.03
2017-09-01T07:43:58.817Z,11.17
2017-09-01T07:46:24.984Z,11.90
2017-09-01T07:48:51.202Z,11.73
2017-09-01T07:51:17.342Z,10.63
2017-09-01T07:53:44.562Z,10.67
2017-09-01T07:56:10.762Z,12.10
2017-09-01T07:58:36.936Z,13.03
2017-09-01T08:01:04.956Z,13.30
2017-09-01T08:03:31.161Z,10.97
2017-09-01T08:05:57.343Z,12.50
2017-09-01T08:08:23.532Z,11.37
2017-09-01T08:10:51.630Z,10.93
2017-09-01T08:13:19.153Z,12.97
2017-09-01T08:15:45.924Z,11.90
2017-09-01T08:18:13.917Z,11.30
2017-09-01T08:20:41.848Z,11.03
2017-09-01T08:23:08.025Z,10.70
2017-09-01T08:25:34.236Z,11.13
2017-09-01T08:28:00.444Z,11.43
2017-09-01T08:30:27.040Z,10.70
2017-09-01T08:32:54.884Z,9.93
2017-09-01T08:35:21.077Z,9.23
2017-09-01T08:37:48.419Z,9.80
2017-09-01T08:40:15.204Z,8.00
2017-09-01T08:42:43.527Z,10.00
2017-09-01T08:45:10.632Z,8.20
2017-09-01T08:47:38.473Z,7.20
2017-09-01T08:50:06.368Z,7.23
2017-09-01T08:52:34.725Z,6.90
2017-09-01T08:55:00.930Z,7.03
2017-09-01T08:57:27.089Z,7.90
2017-09-01T08:59:53.294Z,8.43
2017-09-01T09:02:19.458Z,7.90
2017-09-01T09:04:45.677Z,6.90
2017-09-01T09:07:14.158Z,6.90
2017-09-01T09:09:40.363Z,8.33
2017-09-01T09:12:06.526Z,7.30
2017-09-01T09:14:34.515Z,7.03
2017-09-01T09:17:01.743Z,6.73
2017-09-01T09:19:27.922Z,6.30
2017-09-01T09:21:54.712Z,6.07
2017-09-01T09:24:20.942Z,5.67
2017-09-01T09:26:48.154Z,6.83
2017-09-01T09:29:15.065Z,5.63
2017-09-01T09:31:42.200Z,6.00
2017-09-01T09:34:08.386Z,5.87
2017-09-01T09:36:36.216Z,4.80
2017-09-01T09:39:02.494Z,4.97
2017-09-01T09:41:30.659Z,6.00
2017-09-01T09:43:57.051Z,4.77
2017-09-01T09:46:23.384Z,4.83
2017-09-01T09:48:49.622Z,4.67
2017-09-01T09:51:15.814Z,3.80
2017-09-01T09:53:42.371Z,4.40
2017-09-01T09:56:08.711Z,2.93
2017-09-01T09:58:36.348Z,4.40
2017-09-01T10:01:02.514Z,4.63
2017-09-01T10:03:29.600Z,4.83
2017-09-01T10:05:55.822Z,4.53
2017-09-01T10:08:22.861Z,5.87
2017-09-01T10:10:50.119Z,4.17
2017-09-01T10:13:17.328Z,5.13
2017-09-01T10:15:43.532Z,5.80
2017-09-01T10:18:09.829Z,6.73
2017-09-01T10:20:37.128Z,5.87
2017-09-01T10:23:03.749Z,4.10
2017-09-01T10:25:29.998Z,4.20
2017-09-01T10:27:56.723Z,4.10
2017-09-01T10:30:23.281Z,4.00
2017-09-01T10:32:49.822Z,4.07
2017-09-01T10:35:16.065Z,4.33
2017-09-01T10:37:42.451Z,4.67
2017-09-01T10:40:09.989Z,4.83
2017-09-01T10:42:37.718Z,5.73
2017-09-01T10:45:03.953Z,5.40
2017-09-01T10:47:42.510Z,4.00
2017-09-01T10:50:20.859Z,4.50
2017-09-01T10:52:59.294Z,4.33
2017-09-01T10:55:38.022Z,4.37
2017-09-01T10:58:08.972Z,5.10
2017-09-01T11:00:35.167Z,4.50
2017-09-01T11:03:01.313Z,3.77
2017-09-01T11:05:27.471Z,4.40
2017-09-01T11:07:54.035Z,4.07
2017-09-01T11:10:20.678Z,3.63
2017-09-01T11:12:46.846Z,3.90
2017-09-01T11:15:13.029Z,4.27
2017-09-01T11:17:39.744Z,3.40
2017-09-01T11:20:12.099Z,4.00
2017-09-01T11:22:44.467Z,4.27
2017-09-01T11:25:10.655Z,4.33
2017-09-01T11:27:36.846Z,4.33
2017-09-01T11:30:03.130Z,3.00
2017-09-01T11:32:29.638Z,4.30
2017-09-01T11:34:56.453Z,4.07
2017-09-01T11:37:22.927Z,3.97
2017-09-01T11:39:49.861Z,3.80
2017-09-01T11:42:16.794Z,3.93
2017-09-01T11:44:42.993Z,4.20
2017-09-01T11:47:09.255Z,3.80
2017-09-01T11:49:36.456Z,3.37
2017-09-01T11:52:02.703Z,3.13
2017-09-01T11:54:31.474Z,3.87
2017-09-01T11:56:57.707Z,4.07
2017-09-01T11:59:25.354Z,2.83
2017-09-01T12:01:51.554Z,2.60
2017-09-01T12:04:18.127Z,3.23
2017-09-01T12:06:44.307Z,3.20
2017-09-01T12:09:10.580Z,5.73
2017-09-01T12:11:36.737Z,2.90
2017-09-01T12:14:03.706Z,3.03
2017-09-01T12:16:31.500Z,3.20
2017-09-01T12:18:57.708Z,3.03
2017-09-01T12:21:24.608Z,3.30
2017-09-01T12:23:50.798Z,5.50
2017-09-01T12:26:16.967Z,4.93
2017-09-01T12:28:43.162Z,5.47
2017-09-01T12:31:10.074Z,4.43
2017-09-01T12:33:36.227Z,5.13
2017-09-01T12:36:03.941Z,4.47
2017-09-01T12:38:30.224Z,4.97
2017-09-01T12:40:56.407Z,3.70
2017-09-01T12:43:23.734Z,3.70
2017-09-01T12:45:50.002Z,3.93
2017-09-01T12:48:16.230Z,3.70
2017-09-01T12:50:42.514Z,3.27
2017-09-01T12:53:08.704Z,3.13
2017-09-01T12:55:34.915Z,2.43
2017-09-01T12:58:01.129Z,3.90
2017-09-01T13:00:27.342Z,5.30
2017-09-01T13:02:53.560Z,3.70
2017-09-01T13:05:19.744Z,4.23
2017-09-01T13:07:47.254Z,3.33
2017-09-01T13:10:14.955Z,3.60
2017-09-01T13:12:42.642Z,3.20
2017-09-01T13:15:10.950Z,2.47
2017-09-01T13:17:37.147Z,3.40
2017-09-01T13:20:05.105Z,2.60
2017-09-01T13:22:34.155Z,2.80
2017-09-01T13:25:00.404Z,2.80
2017-09-01T13:27:27.352Z,3.80
2017-09-01T13:29:53.824Z,4.07
2017-09-01T13:32:20.011Z,3.60
2017-09-01T13:34:47.502Z,3.73
2017-09-01T13:37:13.725Z,4.10
2017-09-01T13:39:40.351Z,3.13
2017-09-01T13:42:07.548Z,3.13
2017-09-01T13:44:33.755Z,3.17
2017-09-01T13:46:59.970Z,2.70
2017-09-01T13:49:27.156Z,2.80
2017-09-01T13:51:53.343Z,2.63
2017-09-01T13:54:19.625Z,3.37
2017-09-01T13:56:46.099Z,2.80
2017-09-01T13:59:13.347Z,3.10
2017-09-01T14:01:40.374Z,2.73
2017-09-01T14:13:51.736Z,3.00
2017-09-01T14:16:17.924Z,2.77
2017-09-01T14:18:46.410Z,2.17
2017-09-01T14:21:16.539Z,2.60
2017-09-01T14:23:43.850Z,2.53
2017-09-01T14:26:10.134Z,3.17
2017-09-01T14:28:40.764Z,3.27
2017-09-01T14:31:06.968Z,3.13
2017-09-01T14:33:33.132Z,2.80
2017-09-01T14:36:02.492Z,2.60
2017-09-01T14:38:28.674Z,2.50
2017-09-01T14:40:54.858Z,2.87
2017-09-01T14:43:22.151Z,2.57
2017-09-01T14:45:48.359Z,2.90
2017-09-01T14:48:15.563Z,2.50
2017-09-01T14:50:41.775Z,2.90
2017-09-01T14:53:07.940Z,2.60
2017-09-01T14:55:34.859Z,3.03
2017-09-01T14:58:01.042Z,2.50
2017-09-01T15:00:27.923Z,3.00
2017-09-01T15:02:54.118Z,3.20
2017-09-01T15:05:21.202Z,3.67
2017-09-01T15:07:47.422Z,3.17
2017-09-01T15:10:14.643Z,3.13
2017-09-01T15:12:40.855Z,2.90
2017-09-01T15:15:07.093Z,2.97
2017-09-01T15:17:33.303Z,3.23
2017-09-01T15:19:59.491Z,2.50
2017-09-01T15:22:25.684Z,3.63
2017-09-01T15:24:51.835Z,6.27
2017-09-01T15:27:18.051Z,3.70
2017-09-01T15:29:44.918Z,4.50
2017-09-01T15:32:11.107Z,4.10
2017-09-01T15:34:37.282Z,3.43
2017-09-01T15:37:03.606Z,3.47
2017-09-01T15:39:31.522Z,3.40
2017-09-01T15:41:57.703Z,3.33
2017-09-01T15:44:23.907Z,4.67
2017-09-01T15:46:50.474Z,3.53
2017-09-01T15:49:17.075Z,3.70
2017-09-01T15:51:43.234Z,3.00
2017-09-01T15:54:09.422Z,2.77
2017-09-01T15:56:36.647Z,3.40
2017-09-01T15:59:02.823Z,2.90
2017-09-01T16:01:29.062Z,2.70
2017-09-01T16:03:56.116Z,2.80
2017-09-01T16:06:23.823Z,3.00
2017-09-01T16:08:51.304Z,2.90
2017-09-01T16:11:17.512Z,3.83
2017-09-01T16:13:43.872Z,3.10
2017-09-01T16:16:10.079Z,3.17
2017-09-01T16:18:37.414Z,3.00
2017-09-01T16:21:04.842Z,3.00
2017-09-01T16:23:31.054Z,3.13
2017-09-01T16:25:57.224Z,3.27
2017-09-01T16:28:23.583Z,2.27
2017-09-01T16:30:50.920Z,3.40
2017-09-01T16:33:17.094Z,2.90
2017-09-01T16:35:43.909Z,2.90
2017-09-01T16:38:10.944Z,3.73
2017-09-01T16:40:37.182Z,2.97
2017-09-01T16:43:03.946Z,3.67
2017-09-01T16:45:30.163Z,4.00
2017-09-01T16:47:58.856Z,3.73
2017-09-01T16:50:25.025Z,3.93
2017-09-01T16:52:51.585Z,4.70
2017-09-01T16:55:18.870Z,3.63
2017-09-01T16:57:46.541Z,3.00
2017-09-01T17:00:13.155Z,3.10
2017-09-01T17:02:39.347Z,3.20
2017-09-01T17:14:51.222Z,3.27
2017-09-01T17:17:17.378Z,3.30
2017-09-01T17:19:44.015Z,3.50
2017-09-01T17:22:11.963Z,2.67
2017-09-01T17:24:38.167Z,3.57
2017-09-01T17:27:05.073Z,3.33
2017-09-01T17:29:32.175Z,4.17
2017-09-01T17:32:01.328Z,3.67
2017-09-01T17:34:27.654Z,3.37
2017-09-01T17:36:54.024Z,3.40
2017-09-01T17:39:20.296Z,3.03
2017-09-01T17:41:46.500Z,3.13
2017-09-01T17:44:13.587Z,3.40
2017-09-01T17:46:39.770Z,3.70
2017-09-01T17:49:05.954Z,3.40
2017-09-01T17:51:32.229Z,3.00
2017-09-01T17:53:59.054Z,3.63
2017-09-01T17:56:25.295Z,4.30
2017-09-01T17:58:51.563Z,3.20
2017-09-01T18:01:17.760Z,3.20
2017-09-01T18:03:47.444Z,3.63
2017-09-01T18:06:13.626Z,3.30
2017-09-01T18:08:41.247Z,3.37
2017-09-01T18:11:07.632Z,3.17
2017-09-01T18:13:33.794Z,3.97
2017-09-01T18:16:01.657Z,4.20
2017-09-01T18:18:29.481Z,3.30
2017-09-01T18:20:55.679Z,4.20
2017-09-01T18:23:21.906Z,3.80
2017-09-01T18:25:48.882Z,3.63
2017-09-01T18:28:15.191Z,3.60
2017-09-01T18:30:42.011Z,3.93
2017-09-01T18:33:09.230Z,3.50
2017-09-01T18:35:36.591Z,3.50
2017-09-01T18:38:02.797Z,3.57
2017-09-01T18:40:28.983Z,3.80
2017-09-01T18:42:56.521Z,3.27
2017-09-01T18:45:26.097Z,5.77
2017-09-01T18:47:53.150Z,8.40
2017-09-01T18:50:20.367Z,11.30
2017-09-01T18:52:47.323Z,21.20
2017-09-01T18:55:15.191Z,23.90
2017-09-01T18:57:41.349Z,25.97
2017-09-01T19:05:02.647Z,7.77
2017-09-01T19:07:28.827Z,26.47
2017-09-01T19:09:55.032Z,25.63
2017-09-01T19:12:21.889Z,22.70
2017-09-01T19:14:49.521Z,18.17
2017-09-01T19:17:15.707Z,12.67
2017-09-01T19:19:41.894Z,9.90
2017-09-01T19:22:08.104Z,12.57
2017-09-01T19:24:34.443Z,9.90
2017-09-01T19:27:00.703Z,11.40
2017-09-01T19:29:29.907Z,16.77
2017-09-01T19:31:56.100Z,19.17
2017-09-01T19:34:22.339Z,8.53
2017-09-01T19:36:48.559Z,11.23
2017-09-01T19:39:14.841Z,9.90
2017-09-01T19:41:41.460Z,5.90
2017-09-01T19:44:07.729Z,14.07
2017-09-01T19:46:34.020Z,6.23
2017-09-01T19:49:00.241Z,8.70
2017-09-01T19:51:26.451Z,6.80
2017-09-01T19:53:52.679Z,6.03
2017-09-01T19:56:18.973Z,6.10
2017-09-01T19:58:45.596Z,12.23
2017-09-01T20:01:13.196Z,5.97
2017-09-01T20:03:39.394Z,9.10
2017-09-01T20:06:06.097Z,10.10
2017-09-01T20:08:33.335Z,13.37
2017-09-01T20:10:59.597Z,13.70
2017-09-01T20:13:29.021Z,11.67
2017-09-01T20:15:58.427Z,7.50
2017-09-01T20:18:25.383Z,4.80
2017-09-01T20:20:51.566Z,4.97
2017-09-01T20:23:24.075Z,4.03
2017-09-01T20:25:50.255Z,4.40
2017-09-01T20:28:16.442Z,4.87
2017-09-01T20:30:44.316Z,4.87
2017-09-01T20:33:11.163Z,5.40
2017-09-01T20:35:37.349Z,6.47
2017-09-01T20:38:03.594Z,5.77
2017-09-01T20:40:29.851Z,4.60
2017-09-01T20:42:56.029Z,8.40
2017-09-01T20:45:22.264Z,37.60
2017-09-01T20:47:48.423Z,12.63
2017-09-01T20:50:14.606Z,6.97
2017-09-01T20:52:43.661Z,6.97
2017-09-01T20:55:10.187Z,17.80
2017-09-01T20:57:36.383Z,9.50
2017-09-01T21:00:03.449Z,8.37
2017-09-01T21:02:30.768Z,6.53
2017-09-01T21:04:57.023Z,7.63
2017-09-01T21:07:24.199Z,7.20
2017-09-01T21:09:50.410Z,7.50
2017-09-01T21:12:16.653Z,7.40
2017-09-01T21:14:43.259Z,11.10
2017-09-01T21:26:54.701Z,3.90
2017-09-01T21:29:21.358Z,4.30
2017-09-01T21:31:47.535Z,6.40
2017-09-01T21:34:14.190Z,10.07
2017-09-01T21:36:40.429Z,41.70
2017-09-01T21:39:07.743Z,21.87
2017-09-01T21:41:33.927Z,17.60
2017-09-01T21:44:00.175Z,17.03
2017-09-01T21:46:26.401Z,20.90
2017-09-01T21:48:52.634Z,20.77
2017-09-01T21:51:19.207Z,9.33
2017-09-01T21:53:45.507Z,8.07
2017-09-01T21:56:12.447Z,7.70
2017-09-01T21:58:38.667Z,11.50
2017-09-01T22:01:17.709Z,12.03
2017-09-01T22:03:44.498Z,18.30
2017-09-01T22:06:10.704Z,18.90
2017-09-01T22:08:36.951Z,18.90
2017-09-01T22:11:03.549Z,19.80
2017-09-01T22:13:30.202Z,18.97
2017-09-01T22:15:56.394Z,17.93
2017-09-01T22:18:22.574Z,14.40
2017-09-01T22:20:48.850Z,11.33
2017-09-01T22:23:15.062Z,16.10
2017-09-01T22:25:41.314Z,26.13
2017-09-01T22:28:07.503Z,15.63
2017-09-01T22:30:33.694Z,10.67
2017-09-01T22:32:59.871Z,9.10
2017-09-01T22:35:26.050Z,8.93
2017-09-01T22:37:52.223Z,7.17
2017-09-01T22:40:19.664Z,7.33
2017-09-01T22:42:45.901Z,5.67
2017-09-01T22:45:12.098Z,5.00
2017-09-01T22:47:39.422Z,4.87
2017-09-01T22:50:05.998Z,4.53
2017-09-01T22:52:32.204Z,3.20
2017-09-01T22:54:58.354Z,4.27
2017-09-01T22:57:24.573Z,8.40
2017-09-01T22:59:50.745Z,13.60
2017-09-01T23:02:17.653Z,25.27
2017-09-01T23:04:43.858Z,10.13
2017-09-01T23:07:10.110Z,7.23
2017-09-01T23:09:37.125Z,10.53
2017-09-01T23:12:03.285Z,13.30
2017-09-01T23:14:29.453Z,16.03
2017-09-01T23:16:55.851Z,22.83
2017-09-01T23:19:22.170Z,16.43
2017-09-01T23:21:48.359Z,9.77
2017-09-01T23:24:14.604Z,8.83
2017-09-01T23:26:40.795Z,12.60
2017-09-01T23:29:06.992Z,14.43
2017-09-01T23:31:33.151Z,17.37
2017-09-01T23:33:59.382Z,24.70
2017-09-01T23:36:25.573Z,10.20
2017-09-01T23:38:51.760Z,6.03
2017-09-01T23:41:17.935Z,5.63
2017-09-01T23:43:44.102Z,3.60
2017-09-01T23:46:10.875Z,3.90
2017-09-01T23:48:37.774Z,6.40
2017-09-01T23:51:03.953Z,5.07
2017-09-01T23:53:30.139Z,5.70
2017-09-01T23:55:56.283Z,4.73
2017-09-01T23:58:22.479Z,5.10
